sensor_id;sensor_type;location;lat;lon;timestamp;P1;durP1;ratioP1;P2;durP2;ratioP2
74495;SDS011;62979;55.720;37.606;2022-12-16T00:01:56;16.70;;;10.15;;
74495;SDS011;62979;55.720;37.606;2022-12-16T00:04:23;17.65;;;11.07;;
74495;SDS011;62979;55.720;37.606;2022-12-16T00:06:50;16.77;;;11.65;;
74495;SDS011;62979;55.720;37.606;2022-12-16T00:09:17;15.55;;;9.73;;
74495;SDS011;62979;55.720;37.606;2022-12-16T00:11:45;14.70;;;9.52;;
74495;SDS011;62979;55.720;37.606;2022-12-16T00:14:12;15.57;;;9.65;;
74495;SDS011;62979;55.720;37.606;2022-12-16T00:16:39;17.58;;;10.65;;
74495;SDS011;62979;55.720;37.606;2022-12-16T00:19:06;15.02;;;10.13;;
74495;SDS011;62979;55.720;37.606;2022-12-16T00:21:33;11.43;;;5.93;;
74495;SDS011;62979;55.720;37.606;2022-12-16T00:24:00;10.98;;;6.90;;
74495;SDS011;62979;55.720;37.606;2022-12-16T00:26:27;14.50;;;9.27;;
74495;SDS011;62979;55.720;37.606;2022-12-16T00:28:56;16.13;;;9.48;;
74495;SDS011;62979;55.720;37.606;2022-12-16T00:31:23;13.30;;;8.70;;
74495;SDS011;62979;55.720;37.606;2022-12-16T00:33:54;13.57;;;8.45;;
74495;SDS011;62979;55.720;37.606;2022-12-16T00:36:22;12.15;;;6.90;;
74495;SDS011;62979;55.720;37.606;2022-12-16T00:38:50;15.07;;;9.80;;
74495;SDS011;62979;55.720;37.606;2022-12-16T00:43:44;12.63;;;8.15;;
74495;SDS011;62979;55.720;37.606;2022-12-16T00:46:12;13.02;;;8.45;;
74495;SDS011;62979;55.720;37.606;2022-12-16T00:48:39;14.23;;;8.90;;
74495;SDS011;62979;55.720;37.606;2022-12-16T00:51:06;11.40;;;7.47;;
74495;SDS011;62979;55.720;37.606;2022-12-16T00:53:33;14.50;;;8.50;;
74495;SDS011;62979;55.720;37.606;2022-12-16T00:56:01;14.05;;;9.60;;
74495;SDS011;62979;55.720;37.606;2022-12-16T00:58:30;14.32;;;8.38;;
74495;SDS011;62979;55.720;37.606;2022-12-16T01:00:59;13.45;;;8.95;;
74495;SDS011;62979;55.720;37.606;2022-12-16T01:03:28;13.32;;;7.95;;
74495;SDS011;62979;55.720;37.606;2022-12-16T01:05:55;15.77;;;9.85;;
74495;SDS011;62979;55.720;37.606;2022-12-16T01:08:22;14.93;;;9.23;;
74495;SDS011;62979;55.720;37.606;2022-12-16T01:10:49;10.30;;;6.35;;
74495;SDS011;62979;55.720;37.606;2022-12-16T01:13:16;12.98;;;9.43;;
74495;SDS011;62979;55.720;37.606;2022-12-16T01:15:44;11.65;;;7.75;;
74495;SDS011;62979;55.720;37.606;2022-12-16T01:18:11;11.93;;;7.47;;
74495;SDS011;62979;55.720;37.606;2022-12-16T01:20:40;13.55;;;8.23;;
74495;SDS011;62979;55.720;37.606;2022-12-16T01:23:07;14.23;;;8.55;;
74495;SDS011;62979;55.720;37.606;2022-12-16T01:25:34;13.45;;;7.45;;
74495;SDS011;62979;55.720;37.606;2022-12-16T01:28:01;10.15;;;6.88;;
74495;SDS011;62979;55.720;37.606;2022-12-16T01:30:28;11.80;;;7.43;;
74495;SDS011;62979;55.720;37.606;2022-12-16T01:32:55;14.55;;;8.68;;
74495;SDS011;62979;55.720;37.606;2022-12-16T01:35:22;10.23;;;7.05;;
74495;SDS011;62979;55.720;37.606;2022-12-16T01:37:50;14.00;;;8.07;;
74495;SDS011;62979;55.720;37.606;2022-12-16T01:40:18;11.18;;;7.43;;
74495;SDS011;62979;55.720;37.606;2022-12-16T01:42:49;11.93;;;7.85;;
74495;SDS011;62979;55.720;37.606;2022-12-16T01:45:27;12.27;;;7.70;;
74495;SDS011;62979;55.720;37.606;2022-12-16T01:47:58;13.75;;;9.40;;
74495;SDS011;62979;55.720;37.606;2022-12-16T01:50:31;11.82;;;8.00;;
74495;SDS011;62979;55.720;37.606;2022-12-16T01:53:01;10.48;;;8.23;;
74495;SDS011;62979;55.720;37.606;2022-12-16T01:55:31;12.88;;;8.95;;
74495;SDS011;62979;55.720;37.606;2022-12-16T01:58:04;11.55;;;8.23;;
74495;SDS011;62979;55.720;37.606;2022-12-16T02:00:36;9.90;;;6.57;;
74495;SDS011;62979;55.720;37.606;2022-12-16T02:03:05;13.40;;;8.02;;
74495;SDS011;62979;55.720;37.606;2022-12-16T02:05:33;12.20;;;7.82;;
74495;SDS011;62979;55.720;37.606;2022-12-16T02:08:09;10.23;;;8.38;;
74495;SDS011;62979;55.720;37.606;2022-12-16T02:10:44;9.00;;;5.20;;
74495;SDS011;62979;55.720;37.606;2022-12-16T02:13:35;10.13;;;7.22;;
74495;SDS011;62979;55.720;37.606;2022-12-16T02:16:25;11.05;;;7.82;;
74495;SDS011;62979;55.720;37.606;2022-12-16T02:19:01;13.48;;;8.23;;
74495;SDS011;62979;55.720;37.606;2022-12-16T02:21:55;10.15;;;7.22;;
74495;SDS011;62979;55.720;37.606;2022-12-16T02:24:54;8.95;;;6.63;;
74495;SDS011;62979;55.720;37.606;2022-12-16T02:28:11;11.45;;;7.78;;
74495;SDS011;62979;55.720;37.606;2022-12-16T02:31:09;11.45;;;7.47;;
74495;SDS011;62979;55.720;37.606;2022-12-16T02:33:51;10.75;;;6.82;;
74495;SDS011;62979;55.720;37.606;2022-12-16T02:36:42;7.88;;;5.82;;
74495;SDS011;62979;55.720;37.606;2022-12-16T02:39:28;7.53;;;6.20;;
74495;SDS011;62979;55.720;37.606;2022-12-16T02:42:05;8.90;;;6.13;;
74495;SDS011;62979;55.720;37.606;2022-12-16T02:44:43;10.48;;;7.45;;
74495;SDS011;62979;55.720;37.606;2022-12-16T02:47:24;11.18;;;6.97;;
74495;SDS011;62979;55.720;37.606;2022-12-16T02:49:51;9.40;;;6.82;;
74495;SDS011;62979;55.720;37.606;2022-12-16T02:52:20;7.05;;;4.35;;
74495;SDS011;62979;55.720;37.606;2022-12-16T02:54:52;9.82;;;5.70;;
74495;SDS011;62979;55.720;37.606;2022-12-16T02:57:29;7.45;;;6.40;;
74495;SDS011;62979;55.720;37.606;2022-12-16T03:00:21;9.55;;;6.38;;
74495;SDS011;62979;55.720;37.606;2022-12-16T03:02:54;8.93;;;6.82;;
74495;SDS011;62979;55.720;37.606;2022-12-16T03:05:27;10.07;;;7.70;;
74495;SDS011;62979;55.720;37.606;2022-12-16T03:08:01;7.25;;;4.20;;
74495;SDS011;62979;55.720;37.606;2022-12-16T03:10:34;10.80;;;7.25;;
74495;SDS011;62979;55.720;37.606;2022-12-16T03:13:09;6.20;;;3.75;;
74495;SDS011;62979;55.720;37.606;2022-12-16T03:15:39;9.57;;;7.70;;
74495;SDS011;62979;55.720;37.606;2022-12-16T03:18:11;9.90;;;7.45;;
74495;SDS011;62979;55.720;37.606;2022-12-16T03:20:41;10.75;;;7.78;;
74495;SDS011;62979;55.720;37.606;2022-12-16T03:23:18;9.32;;;7.00;;
74495;SDS011;62979;55.720;37.606;2022-12-16T03:25:53;11.38;;;7.00;;
74495;SDS011;62979;55.720;37.606;2022-12-16T03:28:31;10.10;;;6.82;;
74495;SDS011;62979;55.720;37.606;2022-12-16T03:31:12;10.35;;;6.82;;
74495;SDS011;62979;55.720;37.606;2022-12-16T03:33:54;9.77;;;6.97;;
74495;SDS011;62979;55.720;37.606;2022-12-16T03:36:28;8.77;;;6.70;;
74495;SDS011;62979;55.720;37.606;2022-12-16T03:39:03;9.70;;;7.05;;
74495;SDS011;62979;55.720;37.606;2022-12-16T03:41:33;9.57;;;7.00;;
74495;SDS011;62979;55.720;37.606;2022-12-16T03:46:28;6.85;;;4.00;;
74495;SDS011;62979;55.720;37.606;2022-12-16T03:48:57;7.97;;;5.18;;
74495;SDS011;62979;55.720;37.606;2022-12-16T03:51:24;9.07;;;6.80;;
74495;SDS011;62979;55.720;37.606;2022-12-16T03:53:51;8.23;;;6.22;;
74495;SDS011;62979;55.720;37.606;2022-12-16T03:56:18;10.68;;;6.97;;
74495;SDS011;62979;55.720;37.606;2022-12-16T03:58:45;10.45;;;6.57;;
74495;SDS011;62979;55.720;37.606;2022-12-16T04:01:12;11.68;;;7.90;;
74495;SDS011;62979;55.720;37.606;2022-12-16T04:03:39;9.18;;;5.25;;
74495;SDS011;62979;55.720;37.606;2022-12-16T04:06:08;10.43;;;7.68;;
74495;SDS011;62979;55.720;37.606;2022-12-16T04:08:34;11.45;;;7.93;;
74495;SDS011;62979;55.720;37.606;2022-12-16T04:11:01;10.77;;;7.15;;
74495;SDS011;62979;55.720;37.606;2022-12-16T04:13:46;9.65;;;7.22;;
74495;SDS011;62979;55.720;37.606;2022-12-16T04:16:30;10.15;;;5.95;;
74495;SDS011;62979;55.720;37.606;2022-12-16T04:19:18;11.20;;;7.57;;
74495;SDS011;62979;55.720;37.606;2022-12-16T04:22:11;10.23;;;7.20;;
74495;SDS011;62979;55.720;37.606;2022-12-16T04:25:00;5.72;;;4.68;;
74495;SDS011;62979;55.720;37.606;2022-12-16T04:27:32;8.95;;;6.50;;
74495;SDS011;62979;55.720;37.606;2022-12-16T04:30:00;7.82;;;6.90;;
74495;SDS011;62979;55.720;37.606;2022-12-16T04:32:45;11.02;;;7.68;;
74495;SDS011;62979;55.720;37.606;2022-12-16T04:35:32;10.30;;;7.03;;
74495;SDS011;62979;55.720;37.606;2022-12-16T04:38:18;7.43;;;5.07;;
74495;SDS011;62979;55.720;37.606;2022-12-16T04:41:04;11.80;;;5.82;;
74495;SDS011;62979;55.720;37.606;2022-12-16T04:43:49;9.20;;;5.43;;
74495;SDS011;62979;55.720;37.606;2022-12-16T04:46:33;7.55;;;4.00;;
74495;SDS011;62979;55.720;37.606;2022-12-16T04:49:18;5.97;;;5.00;;
74495;SDS011;62979;55.720;37.606;2022-12-16T04:52:02;10.13;;;7.13;;
74495;SDS011;62979;55.720;37.606;2022-12-16T04:54:49;9.65;;;6.25;;
74495;SDS011;62979;55.720;37.606;2022-12-16T04:57:33;11.00;;;6.75;;
74495;SDS011;62979;55.720;37.606;2022-12-16T05:00:18;8.63;;;6.43;;
74495;SDS011;62979;55.720;37.606;2022-12-16T05:03:03;11.65;;;6.60;;
74495;SDS011;62979;55.720;37.606;2022-12-16T05:05:47;9.02;;;5.40;;
74495;SDS011;62979;55.720;37.606;2022-12-16T05:08:32;9.23;;;6.13;;
74495;SDS011;62979;55.720;37.606;2022-12-16T05:11:18;9.70;;;6.65;;
74495;SDS011;62979;55.720;37.606;2022-12-16T05:14:02;9.50;;;6.85;;
74495;SDS011;62979;55.720;37.606;2022-12-16T05:16:47;10.00;;;6.93;;
74495;SDS011;62979;55.720;37.606;2022-12-16T05:19:31;7.63;;;5.80;;
74495;SDS011;62979;55.720;37.606;2022-12-16T05:22:16;7.22;;;5.00;;
74495;SDS011;62979;55.720;37.606;2022-12-16T05:25:00;8.18;;;6.88;;
74495;SDS011;62979;55.720;37.606;2022-12-16T05:27:50;8.25;;;6.18;;
74495;SDS011;62979;55.720;37.606;2022-12-16T05:30:35;7.50;;;6.18;;
74495;SDS011;62979;55.720;37.606;2022-12-16T05:33:20;8.48;;;6.72;;
74495;SDS011;62979;55.720;37.606;2022-12-16T05:36:04;6.70;;;4.40;;
74495;SDS011;62979;55.720;37.606;2022-12-16T05:38:50;11.65;;;6.35;;
74495;SDS011;62979;55.720;37.606;2022-12-16T05:41:35;7.13;;;5.95;;
74495;SDS011;62979;55.720;37.606;2022-12-16T05:44:20;11.13;;;7.15;;
74495;SDS011;62979;55.720;37.606;2022-12-16T05:47:05;10.27;;;5.10;;
74495;SDS011;62979;55.720;37.606;2022-12-16T05:49:50;7.97;;;4.65;;
74495;SDS011;62979;55.720;37.606;2022-12-16T05:52:34;11.05;;;6.70;;
74495;SDS011;62979;55.720;37.606;2022-12-16T05:55:19;5.75;;;4.65;;
74495;SDS011;62979;55.720;37.606;2022-12-16T05:58:03;7.90;;;5.47;;
74495;SDS011;62979;55.720;37.606;2022-12-16T06:00:49;6.15;;;5.30;;
74495;SDS011;62979;55.720;37.606;2022-12-16T06:03:33;7.57;;;5.95;;
74495;SDS011;62979;55.720;37.606;2022-12-16T06:06:18;11.10;;;6.28;;
74495;SDS011;62979;55.720;37.606;2022-12-16T06:09:03;9.77;;;5.78;;
74495;SDS011;62979;55.720;37.606;2022-12-16T06:11:48;6.32;;;4.93;;
74495;SDS011;62979;55.720;37.606;2022-12-16T06:14:33;8.43;;;6.45;;
74495;SDS011;62979;55.720;37.606;2022-12-16T06:17:19;7.57;;;6.85;;
74495;SDS011;62979;55.720;37.606;2022-12-16T06:20:05;7.15;;;6.07;;
74495;SDS011;62979;55.720;37.606;2022-12-16T06:22:51;5.88;;;3.47;;
74495;SDS011;62979;55.720;37.606;2022-12-16T06:25:36;11.38;;;5.20;;
74495;SDS011;62979;55.720;37.606;2022-12-16T06:28:21;6.40;;;5.30;;
74495;SDS011;62979;55.720;37.606;2022-12-16T06:31:05;11.93;;;8.35;;
74495;SDS011;62979;55.720;37.606;2022-12-16T06:33:53;8.30;;;5.47;;
74495;SDS011;62979;55.720;37.606;2022-12-16T06:36:37;8.57;;;6.22;;
74495;SDS011;62979;55.720;37.606;2022-12-16T06:39:22;7.97;;;5.43;;
74495;SDS011;62979;55.720;37.606;2022-12-16T06:42:06;8.85;;;6.57;;
74495;SDS011;62979;55.720;37.606;2022-12-16T06:44:51;6.75;;;6.03;;
74495;SDS011;62979;55.720;37.606;2022-12-16T06:47:37;8.70;;;6.28;;
74495;SDS011;62979;55.720;37.606;2022-12-16T06:50:23;5.32;;;4.82;;
74495;SDS011;62979;55.720;37.606;2022-12-16T06:53:07;7.97;;;5.70;;
74495;SDS011;62979;55.720;37.606;2022-12-16T06:55:51;8.80;;;5.72;;
74495;SDS011;62979;55.720;37.606;2022-12-16T06:58:32;7.80;;;6.72;;
74495;SDS011;62979;55.720;37.606;2022-12-16T07:01:16;8.45;;;6.38;;
74495;SDS011;62979;55.720;37.606;2022-12-16T07:04:01;7.22;;;5.47;;
74495;SDS011;62979;55.720;37.606;2022-12-16T07:06:46;5.80;;;5.15;;
74495;SDS011;62979;55.720;37.606;2022-12-16T07:09:27;6.32;;;5.70;;
74495;SDS011;62979;55.720;37.606;2022-12-16T07:12:11;7.68;;;5.75;;
74495;SDS011;62979;55.720;37.606;2022-12-16T07:14:55;6.65;;;5.60;;
74495;SDS011;62979;55.720;37.606;2022-12-16T07:17:39;8.43;;;6.78;;
74495;SDS011;62979;55.720;37.606;2022-12-16T07:20:24;10.60;;;7.28;;
74495;SDS011;62979;55.720;37.606;2022-12-16T07:23:10;8.57;;;5.95;;
74495;SDS011;62979;55.720;37.606;2022-12-16T07:25:54;9.32;;;8.30;;
74495;SDS011;62979;55.720;37.606;2022-12-16T07:28:38;9.40;;;6.38;;
74495;SDS011;62979;55.720;37.606;2022-12-16T07:31:23;6.35;;;5.53;;
74495;SDS011;62979;55.720;37.606;2022-12-16T07:34:07;6.22;;;4.45;;
74495;SDS011;62979;55.720;37.606;2022-12-16T07:36:52;7.25;;;5.90;;
74495;SDS011;62979;55.720;37.606;2022-12-16T07:39:37;7.75;;;4.45;;
74495;SDS011;62979;55.720;37.606;2022-12-16T07:42:22;8.00;;;5.32;;
74495;SDS011;62979;55.720;37.606;2022-12-16T07:45:07;8.60;;;6.60;;
74495;SDS011;62979;55.720;37.606;2022-12-16T07:48:07;6.43;;;5.13;;
74495;SDS011;62979;55.720;37.606;2022-12-16T07:50:51;7.70;;;4.80;;
74495;SDS011;62979;55.720;37.606;2022-12-16T07:53:36;8.18;;;7.35;;
74495;SDS011;62979;55.720;37.606;2022-12-16T07:56:21;8.40;;;6.88;;
74495;SDS011;62979;55.720;37.606;2022-12-16T07:59:06;7.45;;;6.72;;
74495;SDS011;62979;55.720;37.606;2022-12-16T08:01:50;10.23;;;6.22;;
74495;SDS011;62979;55.720;37.606;2022-12-16T08:04:34;8.13;;;7.10;;
74495;SDS011;62979;55.720;37.606;2022-12-16T08:07:19;10.43;;;7.07;;
74495;SDS011;62979;55.720;37.606;2022-12-16T08:10:18;9.85;;;7.30;;
74495;SDS011;62979;55.720;37.606;2022-12-16T08:13:03;9.48;;;6.68;;
74495;SDS011;62979;55.720;37.606;2022-12-16T08:18:32;7.78;;;5.60;;
74495;SDS011;62979;55.720;37.606;2022-12-16T08:21:17;8.55;;;6.57;;
74495;SDS011;62979;55.720;37.606;2022-12-16T08:24:01;11.68;;;6.43;;
74495;SDS011;62979;55.720;37.606;2022-12-16T08:26:46;8.95;;;7.28;;
74495;SDS011;62979;55.720;37.606;2022-12-16T08:29:33;6.80;;;6.10;;
74495;SDS011;62979;55.720;37.606;2022-12-16T08:32:22;8.38;;;6.55;;
74495;SDS011;62979;55.720;37.606;2022-12-16T08:35:06;13.90;;;5.57;;
74495;SDS011;62979;55.720;37.606;2022-12-16T08:38:00;7.97;;;6.20;;
74495;SDS011;62979;55.720;37.606;2022-12-16T08:40:44;9.38;;;8.05;;
74495;SDS011;62979;55.720;37.606;2022-12-16T08:43:29;8.50;;;6.05;;
74495;SDS011;62979;55.720;37.606;2022-12-16T08:46:17;8.20;;;7.35;;
74495;SDS011;62979;55.720;37.606;2022-12-16T08:49:02;6.95;;;6.22;;
74495;SDS011;62979;55.720;37.606;2022-12-16T08:51:47;6.60;;;5.82;;
74495;SDS011;62979;55.720;37.606;2022-12-16T08:54:32;9.82;;;5.70;;
74495;SDS011;62979;55.720;37.606;2022-12-16T08:57:16;8.50;;;5.70;;
74495;SDS011;62979;55.720;37.606;2022-12-16T09:00:01;11.88;;;6.85;;
74495;SDS011;62979;55.720;37.606;2022-12-16T09:02:50;8.10;;;5.50;;
74495;SDS011;62979;55.720;37.606;2022-12-16T09:05:37;7.65;;;5.50;;
74495;SDS011;62979;55.720;37.606;2022-12-16T09:08:21;7.95;;;5.50;;
74495;SDS011;62979;55.720;37.606;2022-12-16T09:11:05;7.50;;;5.05;;
74495;SDS011;62979;55.720;37.606;2022-12-16T09:13:49;8.75;;;6.60;;
74495;SDS011;62979;55.720;37.606;2022-12-16T09:16:34;7.63;;;6.43;;
74495;SDS011;62979;55.720;37.606;2022-12-16T09:19:19;7.47;;;6.03;;
74495;SDS011;62979;55.720;37.606;2022-12-16T09:22:04;7.57;;;5.50;;
74495;SDS011;62979;55.720;37.606;2022-12-16T09:24:51;8.43;;;4.95;;
74495;SDS011;62979;55.720;37.606;2022-12-16T09:27:36;8.45;;;6.47;;
74495;SDS011;62979;55.720;37.606;2022-12-16T09:30:32;6.72;;;5.45;;
74495;SDS011;62979;55.720;37.606;2022-12-16T09:33:16;6.63;;;4.35;;
74495;SDS011;62979;55.720;37.606;2022-12-16T09:36:02;9.68;;;5.65;;
74495;SDS011;62979;55.720;37.606;2022-12-16T09:41:37;8.18;;;5.13;;
74495;SDS011;62979;55.720;37.606;2022-12-16T09:44:44;9.07;;;6.85;;
74495;SDS011;62979;55.720;37.606;2022-12-16T09:47:44;9.48;;;6.82;;
74495;SDS011;62979;55.720;37.606;2022-12-16T09:50:44;6.00;;;4.55;;
74495;SDS011;62979;55.720;37.606;2022-12-16T09:53:31;8.93;;;7.43;;
74495;SDS011;62979;55.720;37.606;2022-12-16T09:56:21;8.32;;;6.82;;
74495;SDS011;62979;55.720;37.606;2022-12-16T09:59:13;7.45;;;6.05;;
74495;SDS011;62979;55.720;37.606;2022-12-16T10:02:08;10.35;;;6.45;;
74495;SDS011;62979;55.720;37.606;2022-12-16T10:04:54;5.32;;;3.83;;
74495;SDS011;62979;55.720;37.606;2022-12-16T10:07:41;10.32;;;7.63;;
74495;SDS011;62979;55.720;37.606;2022-12-16T10:10:37;12.30;;;7.65;;
74495;SDS011;62979;55.720;37.606;2022-12-16T10:13:51;6.47;;;5.55;;
74495;SDS011;62979;55.720;37.606;2022-12-16T10:16:45;12.88;;;7.40;;
74495;SDS011;62979;55.720;37.606;2022-12-16T10:19:42;8.65;;;5.80;;
74495;SDS011;62979;55.720;37.606;2022-12-16T10:22:37;6.35;;;5.15;;
74495;SDS011;62979;55.720;37.606;2022-12-16T10:25:31;7.57;;;5.95;;
74495;SDS011;62979;55.720;37.606;2022-12-16T10:28:28;7.38;;;5.45;;
74495;SDS011;62979;55.720;37.606;2022-12-16T10:31:42;8.48;;;6.78;;
74495;SDS011;62979;55.720;37.606;2022-12-16T10:34:27;7.88;;;7.07;;
74495;SDS011;62979;55.720;37.606;2022-12-16T10:37:17;10.88;;;6.30;;
74495;SDS011;62979;55.720;37.606;2022-12-16T10:40:30;10.77;;;6.78;;
74495;SDS011;62979;55.720;37.606;2022-12-16T10:43:20;8.77;;;6.13;;
74495;SDS011;62979;55.720;37.606;2022-12-16T10:46:17;10.05;;;6.82;;
74495;SDS011;62979;55.720;37.606;2022-12-16T10:49:07;7.80;;;5.38;;
74495;SDS011;62979;55.720;37.606;2022-12-16T10:51:59;8.07;;;4.43;;
74495;SDS011;62979;55.720;37.606;2022-12-16T10:54:45;7.43;;;6.50;;
74495;SDS011;62979;55.720;37.606;2022-12-16T10:57:41;9.00;;;7.65;;
74495;SDS011;62979;55.720;37.606;2022-12-16T11:00:43;8.45;;;6.60;;
74495;SDS011;62979;55.720;37.606;2022-12-16T11:03:32;10.20;;;7.40;;
74495;SDS011;62979;55.720;37.606;2022-12-16T11:06:21;7.90;;;5.55;;
74495;SDS011;62979;55.720;37.606;2022-12-16T11:09:23;9.13;;;7.25;;
74495;SDS011;62979;55.720;37.606;2022-12-16T11:12:20;6.10;;;5.50;;
74495;SDS011;62979;55.720;37.606;2022-12-16T11:15:17;8.75;;;5.75;;
74495;SDS011;62979;55.720;37.606;2022-12-16T11:18:08;9.52;;;7.35;;
74495;SDS011;62979;55.720;37.606;2022-12-16T11:21:13;11.07;;;7.95;;
74495;SDS011;62979;55.720;37.606;2022-12-16T11:24:08;11.23;;;6.47;;
74495;SDS011;62979;55.720;37.606;2022-12-16T11:26:58;7.13;;;6.00;;
74495;SDS011;62979;55.720;37.606;2022-12-16T11:29:52;8.80;;;5.95;;
74495;SDS011;62979;55.720;37.606;2022-12-16T11:32:47;9.00;;;6.35;;
74495;SDS011;62979;55.720;37.606;2022-12-16T11:35:38;9.98;;;6.50;;
74495;SDS011;62979;55.720;37.606;2022-12-16T11:38:27;7.93;;;5.50;;
74495;SDS011;62979;55.720;37.606;2022-12-16T11:41:24;10.40;;;7.22;;
74495;SDS011;62979;55.720;37.606;2022-12-16T11:44:15;5.35;;;4.13;;
74495;SDS011;62979;55.720;37.606;2022-12-16T11:47:05;8.20;;;5.13;;
74495;SDS011;62979;55.720;37.606;2022-12-16T11:50:04;7.05;;;5.45;;
74495;SDS011;62979;55.720;37.606;2022-12-16T11:52:58;8.95;;;6.10;;
74495;SDS011;62979;55.720;37.606;2022-12-16T11:55:46;12.20;;;7.80;;
74495;SDS011;62979;55.720;37.606;2022-12-16T11:58:36;7.90;;;4.90;;
74495;SDS011;62979;55.720;37.606;2022-12-16T12:01:29;7.53;;;5.78;;
74495;SDS011;62979;55.720;37.606;2022-12-16T12:04:22;8.98;;;6.43;;
74495;SDS011;62979;55.720;37.606;2022-12-16T12:07:10;5.82;;;3.20;;
74495;SDS011;62979;55.720;37.606;2022-12-16T12:10:24;8.15;;;6.30;;
74495;SDS011;62979;55.720;37.606;2022-12-16T12:13:34;8.77;;;6.10;;
74495;SDS011;62979;55.720;37.606;2022-12-16T12:16:47;6.82;;;4.63;;
74495;SDS011;62979;55.720;37.606;2022-12-16T12:19:45;7.10;;;5.85;;
74495;SDS011;62979;55.720;37.606;2022-12-16T12:22:42;6.65;;;5.30;;
74495;SDS011;62979;55.720;37.606;2022-12-16T12:25:43;3.67;;;3.03;;
74495;SDS011;62979;55.720;37.606;2022-12-16T12:28:46;8.27;;;6.35;;
74495;SDS011;62979;55.720;37.606;2022-12-16T12:31:41;7.63;;;6.25;;
74495;SDS011;62979;55.720;37.606;2022-12-16T12:34:48;7.63;;;5.78;;
74495;SDS011;62979;55.720;37.606;2022-12-16T12:37:48;3.85;;;3.38;;
74495;SDS011;62979;55.720;37.606;2022-12-16T12:40:47;6.30;;;5.38;;
74495;SDS011;62979;55.720;37.606;2022-12-16T12:43:50;7.82;;;6.75;;
74495;SDS011;62979;55.720;37.606;2022-12-16T12:46:44;7.75;;;4.32;;
74495;SDS011;62979;55.720;37.606;2022-12-16T12:49:40;4.68;;;3.97;;
74495;SDS011;62979;55.720;37.606;2022-12-16T12:52:46;7.82;;;6.00;;
74495;SDS011;62979;55.720;37.606;2022-12-16T12:55:59;7.63;;;5.68;;
74495;SDS011;62979;55.720;37.606;2022-12-16T12:58:53;8.73;;;6.13;;
74495;SDS011;62979;55.720;37.606;2022-12-16T13:01:53;6.90;;;4.57;;
74495;SDS011;62979;55.720;37.606;2022-12-16T13:07:25;3.53;;;2.22;;
74495;SDS011;62979;55.720;37.606;2022-12-16T13:10:10;4.03;;;3.70;;
74495;SDS011;62979;55.720;37.606;2022-12-16T13:13:30;5.13;;;3.95;;
74495;SDS011;62979;55.720;37.606;2022-12-16T13:19:56;9.35;;;6.47;;
74495;SDS011;62979;55.720;37.606;2022-12-16T13:22:42;7.32;;;5.07;;
74495;SDS011;62979;55.720;37.606;2022-12-16T13:25:32;9.38;;;6.30;;
74495;SDS011;62979;55.720;37.606;2022-12-16T13:28:25;6.63;;;5.50;;
74495;SDS011;62979;55.720;37.606;2022-12-16T13:31:15;7.93;;;6.18;;
74495;SDS011;62979;55.720;37.606;2022-12-16T13:34:04;8.23;;;6.72;;
74495;SDS011;62979;55.720;37.606;2022-12-16T13:37:03;11.07;;;6.88;;
74495;SDS011;62979;55.720;37.606;2022-12-16T13:40:02;8.82;;;5.60;;
74495;SDS011;62979;55.720;37.606;2022-12-16T13:42:56;6.88;;;5.78;;
74495;SDS011;62979;55.720;37.606;2022-12-16T13:45:40;6.78;;;4.57;;
74495;SDS011;62979;55.720;37.606;2022-12-16T13:48:38;10.93;;;6.20;;
74495;SDS011;62979;55.720;37.606;2022-12-16T13:55:12;5.47;;;4.47;;
74495;SDS011;62979;55.720;37.606;2022-12-16T13:58:03;9.82;;;6.65;;
74495;SDS011;62979;55.720;37.606;2022-12-16T14:00:59;9.10;;;6.45;;
74495;SDS011;62979;55.720;37.606;2022-12-16T14:03:55;10.00;;;7.03;;
74495;SDS011;62979;55.720;37.606;2022-12-16T14:06:43;9.60;;;6.10;;
74495;SDS011;62979;55.720;37.606;2022-12-16T14:09:31;10.23;;;7.38;;
74495;SDS011;62979;55.720;37.606;2022-12-16T14:12:37;9.85;;;6.32;;
74495;SDS011;62979;55.720;37.606;2022-12-16T14:15:38;5.43;;;4.93;;
74495;SDS011;62979;55.720;37.606;2022-12-16T14:18:41;7.57;;;6.80;;
74495;SDS011;62979;55.720;37.606;2022-12-16T14:21:44;11.25;;;8.48;;
74495;SDS011;62979;55.720;37.606;2022-12-16T14:24:36;9.07;;;7.18;;
74495;SDS011;62979;55.720;37.606;2022-12-16T14:27:22;12.90;;;8.95;;
74495;SDS011;62979;55.720;37.606;2022-12-16T14:33:13;7.05;;;5.68;;
74495;SDS011;62979;55.720;37.606;2022-12-16T14:36:18;7.45;;;5.88;;
74495;SDS011;62979;55.720;37.606;2022-12-16T14:39:09;10.15;;;7.45;;
74495;SDS011;62979;55.720;37.606;2022-12-16T14:41:56;9.75;;;8.13;;
74495;SDS011;62979;55.720;37.606;2022-12-16T14:44:43;11.05;;;7.75;;
74495;SDS011;62979;55.720;37.606;2022-12-16T14:47:29;12.40;;;7.53;;
74495;SDS011;62979;55.720;37.606;2022-12-16T14:50:17;9.07;;;6.97;;
74495;SDS011;62979;55.720;37.606;2022-12-16T14:53:15;11.23;;;7.63;;
74495;SDS011;62979;55.720;37.606;2022-12-16T14:56:17;11.30;;;8.23;;
74495;SDS011;62979;55.720;37.606;2022-12-16T14:59:07;11.18;;;7.82;;
74495;SDS011;62979;55.720;37.606;2022-12-16T15:01:56;11.32;;;7.93;;
74495;SDS011;62979;55.720;37.606;2022-12-16T15:04:47;13.07;;;8.00;;
74495;SDS011;62979;55.720;37.606;2022-12-16T15:07:32;9.18;;;7.03;;
74495;SDS011;62979;55.720;37.606;2022-12-16T15:10:21;11.23;;;7.22;;
74495;SDS011;62979;55.720;37.606;2022-12-16T15:13:13;8.90;;;6.13;;
74495;SDS011;62979;55.720;37.606;2022-12-16T15:16:01;10.88;;;8.75;;
74495;SDS011;62979;55.720;37.606;2022-12-16T15:18:54;12.85;;;7.88;;
74495;SDS011;62979;55.720;37.606;2022-12-16T15:21:44;14.80;;;9.52;;
74495;SDS011;62979;55.720;37.606;2022-12-16T15:24:31;13.40;;;9.18;;
74495;SDS011;62979;55.720;37.606;2022-12-16T15:27:24;9.43;;;6.88;;
74495;SDS011;62979;55.720;37.606;2022-12-16T15:33:33;11.57;;;8.77;;
74495;SDS011;62979;55.720;37.606;2022-12-16T15:36:23;11.75;;;9.00;;
74495;SDS011;62979;55.720;37.606;2022-12-16T15:39:18;12.82;;;8.13;;
74495;SDS011;62979;55.720;37.606;2022-12-16T15:42:15;9.63;;;8.07;;
74495;SDS011;62979;55.720;37.606;2022-12-16T15:45:03;7.70;;;6.13;;
74495;SDS011;62979;55.720;37.606;2022-12-16T15:48:00;12.02;;;7.88;;
74495;SDS011;62979;55.720;37.606;2022-12-16T15:51:02;12.75;;;9.43;;
74495;SDS011;62979;55.720;37.606;2022-12-16T15:53:59;14.32;;;9.73;;
74495;SDS011;62979;55.720;37.606;2022-12-16T15:56:56;16.48;;;10.30;;
74495;SDS011;62979;55.720;37.606;2022-12-16T15:59:51;16.33;;;9.98;;
74495;SDS011;62979;55.720;37.606;2022-12-16T16:02:44;17.17;;;10.60;;
74495;SDS011;62979;55.720;37.606;2022-12-16T16:05:33;14.90;;;11.18;;
74495;SDS011;62979;55.720;37.606;2022-12-16T16:08:18;14.88;;;11.38;;
74495;SDS011;62979;55.720;37.606;2022-12-16T16:11:03;12.40;;;9.00;;
74495;SDS011;62979;55.720;37.606;2022-12-16T16:13:51;13.85;;;10.95;;
74495;SDS011;62979;55.720;37.606;2022-12-16T16:16:35;14.80;;;10.38;;
74495;SDS011;62979;55.720;37.606;2022-12-16T16:19:23;17.25;;;10.63;;
74495;SDS011;62979;55.720;37.606;2022-12-16T16:22:11;13.95;;;9.45;;
74495;SDS011;62979;55.720;37.606;2022-12-16T16:24:58;15.52;;;11.18;;
74495;SDS011;62979;55.720;37.606;2022-12-16T16:27:43;14.20;;;10.10;;
74495;SDS011;62979;55.720;37.606;2022-12-16T16:30:28;12.73;;;8.70;;
74495;SDS011;62979;55.720;37.606;2022-12-16T16:33:12;14.93;;;8.98;;
74495;SDS011;62979;55.720;37.606;2022-12-16T16:35:57;11.85;;;8.25;;
74495;SDS011;62979;55.720;37.606;2022-12-16T16:38:43;15.23;;;9.23;;
74495;SDS011;62979;55.720;37.606;2022-12-16T16:41:27;12.05;;;8.73;;